sensor_id;sensor_type;location;lat;lon;timestamp;P1;durP1;ratioP1;P2;durP2;ratioP2
21848;SDS011;11089;49.852;19.700;2024-03-08T00:02:48;39.53;;;18.27;;
21848;SDS011;11089;49.852;19.700;2024-03-08T00:05:50;41.33;;;18.75;;
21848;SDS011;11089;49.852;19.700;2024-03-08T00:08:51;41.33;;;19.25;;
21848;SDS011;11089;49.852;19.700;2024-03-08T00:11:52;42.95;;;19.38;;
21848;SDS011;11089;49.852;19.700;2024-03-08T00:14:53;43.03;;;18.50;;
21848;SDS011;11089;49.852;19.700;2024-03-08T00:17:54;44.50;;;18.40;;
21848;SDS011;11089;49.852;19.700;2024-03-08T00:20:55;47.28;;;20.63;;
21848;SDS011;11089;49.852;19.700;2024-03-08T00:23:56;39.58;;;17.92;;
21848;SDS011;11089;49.852;19.700;2024-03-08T00:26:57;44.58;;;19.75;;
21848;SDS011;11089;49.852;19.700;2024-03-08T00:29:58;44.38;;;20.13;;
21848;SDS011;11089;49.852;19.700;2024-03-08T00:33:00;45.20;;;21.00;;
21848;SDS011;11089;49.852;19.700;2024-03-08T00:36:01;38.08;;;17.80;;
21848;SDS011;11089;49.852;19.700;2024-03-08T00:39:02;40.50;;;17.75;;
21848;SDS011;11089;49.852;19.700;2024-03-08T00:42:06;40.28;;;18.50;;
21848;SDS011;11089;49.852;19.700;2024-03-08T00:45:07;43.17;;;18.65;;
21848;SDS011;11089;49.852;19.700;2024-03-08T00:48:10;39.72;;;18.48;;
21848;SDS011;11089;49.852;19.700;2024-03-08T00:51:11;38.63;;;18.50;;
21848;SDS011;11089;49.852;19.700;2024-03-08T00:54:12;39.80;;;18.92;;
21848;SDS011;11089;49.852;19.700;2024-03-08T00:57:13;46.80;;;19.88;;
21848;SDS011;11089;49.852;19.700;2024-03-08T01:00:13;40.50;;;19.20;;
21848;SDS011;11089;49.852;19.700;2024-03-08T01:03:14;40.15;;;18.70;;
21848;SDS011;11089;49.852;19.700;2024-03-08T01:06:15;39.65;;;17.95;;
21848;SDS011;11089;49.852;19.700;2024-03-08T01:09:16;42.72;;;18.40;;
21848;SDS011;11089;49.852;19.700;2024-03-08T01:12:17;41.95;;;18.38;;
21848;SDS011;11089;49.852;19.700;2024-03-08T01:15:18;43.13;;;18.88;;
21848;SDS011;11089;49.852;19.700;2024-03-08T01:18:19;40.35;;;19.27;;
21848;SDS011;11089;49.852;19.700;2024-03-08T01:21:20;39.45;;;18.23;;
21848;SDS011;11089;49.852;19.700;2024-03-08T01:24:22;42.45;;;19.10;;
21848;SDS011;11089;49.852;19.700;2024-03-08T01:27:23;43.35;;;19.65;;
21848;SDS011;11089;49.852;19.700;2024-03-08T01:30:25;41.42;;;18.98;;
21848;SDS011;11089;49.852;19.700;2024-03-08T01:33:26;40.45;;;18.67;;
21848;SDS011;11089;49.852;19.700;2024-03-08T01:36:27;38.95;;;19.20;;
21848;SDS011;11089;49.852;19.700;2024-03-08T01:39:28;39.78;;;18.13;;
21848;SDS011;11089;49.852;19.700;2024-03-08T01:42:29;40.40;;;18.35;;
21848;SDS011;11089;49.852;19.700;2024-03-08T01:45:30;34.92;;;16.75;;
21848;SDS011;11089;49.852;19.700;2024-03-08T01:48:34;38.10;;;17.13;;
21848;SDS011;11089;49.852;19.700;2024-03-08T01:51:36;35.95;;;17.00;;
21848;SDS011;11089;49.852;19.700;2024-03-08T01:54:38;36.70;;;16.00;;
21848;SDS011;11089;49.852;19.700;2024-03-08T01:57:41;36.25;;;16.73;;
21848;SDS011;11089;49.852;19.700;2024-03-08T02:00:46;38.45;;;17.50;;
21848;SDS011;11089;49.852;19.700;2024-03-08T02:03:51;39.42;;;18.20;;
21848;SDS011;11089;49.852;19.700;2024-03-08T02:06:52;40.47;;;17.95;;
21848;SDS011;11089;49.852;19.700;2024-03-08T02:09:53;39.42;;;17.05;;
21848;SDS011;11089;49.852;19.700;2024-03-08T02:12:54;38.60;;;16.65;;
21848;SDS011;11089;49.852;19.700;2024-03-08T02:15:56;37.47;;;16.92;;
21848;SDS011;11089;49.852;19.700;2024-03-08T02:19:02;39.15;;;17.27;;
21848;SDS011;11089;49.852;19.700;2024-03-08T02:22:03;36.30;;;15.68;;
21848;SDS011;11089;49.852;19.700;2024-03-08T02:25:04;36.05;;;18.10;;
21848;SDS011;11089;49.852;19.700;2024-03-08T02:28:05;39.15;;;17.95;;
21848;SDS011;11089;49.852;19.700;2024-03-08T02:31:08;36.33;;;16.75;;
21848;SDS011;11089;49.852;19.700;2024-03-08T02:34:08;38.80;;;17.50;;
21848;SDS011;11089;49.852;19.700;2024-03-08T02:37:09;36.22;;;16.33;;
21848;SDS011;11089;49.852;19.700;2024-03-08T02:40:10;38.35;;;17.13;;
21848;SDS011;11089;49.852;19.700;2024-03-08T02:43:12;38.75;;;17.02;;
21848;SDS011;11089;49.852;19.700;2024-03-08T02:46:17;36.20;;;16.05;;
21848;SDS011;11089;49.852;19.700;2024-03-08T02:49:18;37.47;;;16.92;;
21848;SDS011;11089;49.852;19.700;2024-03-08T02:52:19;36.85;;;16.60;;
21848;SDS011;11089;49.852;19.700;2024-03-08T02:55:21;37.75;;;16.75;;
21848;SDS011;11089;49.852;19.700;2024-03-08T02:58:22;38.55;;;17.55;;
21848;SDS011;11089;49.852;19.700;2024-03-08T03:01:23;39.08;;;17.08;;
21848;SDS011;11089;49.852;19.700;2024-03-08T03:04:24;34.67;;;16.88;;
21848;SDS011;11089;49.852;19.700;2024-03-08T03:07:25;38.55;;;17.38;;
21848;SDS011;11089;49.852;19.700;2024-03-08T03:10:27;37.90;;;16.42;;
21848;SDS011;11089;49.852;19.700;2024-03-08T03:13:28;35.95;;;16.73;;
21848;SDS011;11089;49.852;19.700;2024-03-08T03:16:29;43.25;;;17.65;;
21848;SDS011;11089;49.852;19.700;2024-03-08T03:19:30;36.20;;;15.52;;
21848;SDS011;11089;49.852;19.700;2024-03-08T03:22:31;35.25;;;16.42;;
21848;SDS011;11089;49.852;19.700;2024-03-08T03:25:35;37.33;;;17.17;;
21848;SDS011;11089;49.852;19.700;2024-03-08T03:28:36;36.75;;;17.38;;
21848;SDS011;11089;49.852;19.700;2024-03-08T03:31:39;39.30;;;16.65;;
21848;SDS011;11089;49.852;19.700;2024-03-08T03:34:40;38.95;;;16.38;;
21848;SDS011;11089;49.852;19.700;2024-03-08T03:37:44;36.67;;;16.60;;
21848;SDS011;11089;49.852;19.700;2024-03-08T03:40:51;37.80;;;17.38;;
21848;SDS011;11089;49.852;19.700;2024-03-08T03:43:56;34.13;;;15.23;;
21848;SDS011;11089;49.852;19.700;2024-03-08T03:46:57;36.67;;;16.48;;
21848;SDS011;11089;49.852;19.700;2024-03-08T03:49:58;38.80;;;15.98;;
21848;SDS011;11089;49.852;19.700;2024-03-08T03:53:02;36.72;;;16.70;;
21848;SDS011;11089;49.852;19.700;2024-03-08T03:56:04;39.17;;;16.65;;
21848;SDS011;11089;49.852;19.700;2024-03-08T03:59:07;36.50;;;16.48;;
21848;SDS011;11089;49.852;19.700;2024-03-08T04:02:08;37.03;;;16.60;;
21848;SDS011;11089;49.852;19.700;2024-03-08T04:05:09;41.75;;;15.70;;
21848;SDS011;11089;49.852;19.700;2024-03-08T04:08:10;34.70;;;16.98;;
21848;SDS011;11089;49.852;19.700;2024-03-08T04:11:11;38.45;;;15.82;;
21848;SDS011;11089;49.852;19.700;2024-03-08T04:14:12;37.58;;;15.77;;
21848;SDS011;11089;49.852;19.700;2024-03-08T04:17:13;35.33;;;15.90;;
21848;SDS011;11089;49.852;19.700;2024-03-08T04:20:14;38.40;;;17.10;;
21848;SDS011;11089;49.852;19.700;2024-03-08T04:23:15;33.58;;;16.02;;
21848;SDS011;11089;49.852;19.700;2024-03-08T04:26:17;34.55;;;16.40;;
21848;SDS011;11089;49.852;19.700;2024-03-08T04:29:18;34.45;;;16.05;;
21848;SDS011;11089;49.852;19.700;2024-03-08T04:32:19;34.92;;;15.43;;
21848;SDS011;11089;49.852;19.700;2024-03-08T04:35:20;35.47;;;15.68;;
21848;SDS011;11089;49.852;19.700;2024-03-08T04:38:21;35.28;;;15.82;;
21848;SDS011;11089;49.852;19.700;2024-03-08T04:41:22;33.53;;;15.45;;
21848;SDS011;11089;49.852;19.700;2024-03-08T04:44:23;33.05;;;16.30;;
21848;SDS011;11089;49.852;19.700;2024-03-08T04:47:27;36.70;;;16.42;;
21848;SDS011;11089;49.852;19.700;2024-03-08T04:50:27;40.40;;;17.25;;
21848;SDS011;11089;49.852;19.700;2024-03-08T04:53:29;39.97;;;16.70;;
21848;SDS011;11089;49.852;19.700;2024-03-08T04:56:30;39.92;;;16.77;;
21848;SDS011;11089;49.852;19.700;2024-03-08T04:59:31;33.58;;;15.75;;
21848;SDS011;11089;49.852;19.700;2024-03-08T05:02:32;34.35;;;15.65;;
21848;SDS011;11089;49.852;19.700;2024-03-08T05:05:33;38.17;;;16.65;;
21848;SDS011;11089;49.852;19.700;2024-03-08T05:08:34;38.78;;;16.15;;
21848;SDS011;11089;49.852;19.700;2024-03-08T05:11:34;36.10;;;16.42;;
21848;SDS011;11089;49.852;19.700;2024-03-08T05:14:36;38.10;;;16.83;;
21848;SDS011;11089;49.852;19.700;2024-03-08T05:17:37;34.30;;;15.63;;
21848;SDS011;11089;49.852;19.700;2024-03-08T05:20:37;39.95;;;16.23;;
21848;SDS011;11089;49.852;19.700;2024-03-08T05:23:39;35.70;;;15.68;;
21848;SDS011;11089;49.852;19.700;2024-03-08T05:26:40;35.42;;;15.95;;
21848;SDS011;11089;49.852;19.700;2024-03-08T05:29:41;35.88;;;15.80;;
21848;SDS011;11089;49.852;19.700;2024-03-08T05:32:42;36.05;;;16.77;;
21848;SDS011;11089;49.852;19.700;2024-03-08T05:35:46;36.28;;;16.38;;
21848;SDS011;11089;49.852;19.700;2024-03-08T05:38:46;35.63;;;16.67;;
21848;SDS011;11089;49.852;19.700;2024-03-08T05:41:50;36.70;;;16.70;;
21848;SDS011;11089;49.852;19.700;2024-03-08T05:44:51;34.15;;;15.80;;
21848;SDS011;11089;49.852;19.700;2024-03-08T05:47:52;36.83;;;16.52;;
21848;SDS011;11089;49.852;19.700;2024-03-08T05:50:53;35.35;;;16.02;;
21848;SDS011;11089;49.852;19.700;2024-03-08T05:53:54;37.83;;;16.92;;
21848;SDS011;11089;49.852;19.700;2024-03-08T05:56:57;37.60;;;17.00;;
21848;SDS011;11089;49.852;19.700;2024-03-08T05:59:57;37.33;;;16.67;;
21848;SDS011;11089;49.852;19.700;2024-03-08T06:02:59;37.95;;;16.13;;
21848;SDS011;11089;49.852;19.700;2024-03-08T06:05:59;38.53;;;16.95;;
21848;SDS011;11089;49.852;19.700;2024-03-08T06:09:00;36.58;;;17.23;;
21848;SDS011;11089;49.852;19.700;2024-03-08T06:12:09;37.92;;;17.10;;
21848;SDS011;11089;49.852;19.700;2024-03-08T06:15:11;39.80;;;16.52;;
21848;SDS011;11089;49.852;19.700;2024-03-08T06:18:16;39.20;;;16.50;;
21848;SDS011;11089;49.852;19.700;2024-03-08T06:21:17;38.10;;;16.67;;
21848;SDS011;11089;49.852;19.700;2024-03-08T06:24:18;36.47;;;17.38;;
21848;SDS011;11089;49.852;19.700;2024-03-08T06:27:19;37.20;;;16.58;;
21848;SDS011;11089;49.852;19.700;2024-03-08T06:30:21;39.60;;;16.58;;
21848;SDS011;11089;49.852;19.700;2024-03-08T06:33:22;38.92;;;16.52;;
21848;SDS011;11089;49.852;19.700;2024-03-08T06:36:23;35.60;;;16.23;;
21848;SDS011;11089;49.852;19.700;2024-03-08T06:39:24;38.95;;;16.48;;
21848;SDS011;11089;49.852;19.700;2024-03-08T06:42:25;36.92;;;16.20;;
21848;SDS011;11089;49.852;19.700;2024-03-08T06:45:26;38.97;;;17.58;;
21848;SDS011;11089;49.852;19.700;2024-03-08T06:48:28;38.30;;;17.52;;
21848;SDS011;11089;49.852;19.700;2024-03-08T06:51:29;39.70;;;16.85;;
21848;SDS011;11089;49.852;19.700;2024-03-08T06:54:30;34.80;;;15.35;;
21848;SDS011;11089;49.852;19.700;2024-03-08T06:57:32;34.17;;;16.90;;
21848;SDS011;11089;49.852;19.700;2024-03-08T07:00:33;37.90;;;17.70;;
21848;SDS011;11089;49.852;19.700;2024-03-08T07:03:34;37.97;;;16.75;;
21848;SDS011;11089;49.852;19.700;2024-03-08T07:06:35;38.47;;;17.50;;
21848;SDS011;11089;49.852;19.700;2024-03-08T07:09:36;35.90;;;16.77;;
21848;SDS011;11089;49.852;19.700;2024-03-08T07:12:37;36.30;;;16.63;;
21848;SDS011;11089;49.852;19.700;2024-03-08T07:15:38;38.65;;;17.20;;
21848;SDS011;11089;49.852;19.700;2024-03-08T07:18:39;38.60;;;16.52;;
21848;SDS011;11089;49.852;19.700;2024-03-08T07:21:43;35.33;;;16.35;;
21848;SDS011;11089;49.852;19.700;2024-03-08T07:24:44;38.58;;;17.30;;
21848;SDS011;11089;49.852;19.700;2024-03-08T07:27:59;39.78;;;17.00;;
21848;SDS011;11089;49.852;19.700;2024-03-08T07:31:01;38.20;;;17.08;;
21848;SDS011;11089;49.852;19.700;2024-03-08T07:34:22;35.60;;;16.20;;
21848;SDS011;11089;49.852;19.700;2024-03-08T07:37:22;37.10;;;16.20;;
21848;SDS011;11089;49.852;19.700;2024-03-08T07:40:23;38.97;;;17.00;;
21848;SDS011;11089;49.852;19.700;2024-03-08T07:43:24;39.15;;;17.02;;
21848;SDS011;11089;49.852;19.700;2024-03-08T07:46:25;33.60;;;16.05;;
21848;SDS011;11089;49.852;19.700;2024-03-08T07:49:26;34.63;;;15.32;;
21848;SDS011;11089;49.852;19.700;2024-03-08T07:52:27;33.20;;;15.70;;
21848;SDS011;11089;49.852;19.700;2024-03-08T07:55:28;33.53;;;15.43;;
21848;SDS011;11089;49.852;19.700;2024-03-08T07:58:28;33.80;;;15.25;;
21848;SDS011;11089;49.852;19.700;2024-03-08T08:01:29;35.88;;;16.05;;
21848;SDS011;11089;49.852;19.700;2024-03-08T08:04:30;36.53;;;16.02;;
21848;SDS011;11089;49.852;19.700;2024-03-08T08:07:31;33.47;;;16.13;;
21848;SDS011;11089;49.852;19.700;2024-03-08T08:10:32;36.35;;;15.48;;
21848;SDS011;11089;49.852;19.700;2024-03-08T08:13:33;33.00;;;15.10;;
21848;SDS011;11089;49.852;19.700;2024-03-08T08:16:35;34.22;;;15.05;;
21848;SDS011;11089;49.852;19.700;2024-03-08T08:19:41;31.00;;;15.60;;
21848;SDS011;11089;49.852;19.700;2024-03-08T08:22:43;33.28;;;15.00;;
21848;SDS011;11089;49.852;19.700;2024-03-08T08:25:44;36.47;;;16.58;;
21848;SDS011;11089;49.852;19.700;2024-03-08T08:28:46;32.97;;;16.52;;
21848;SDS011;11089;49.852;19.700;2024-03-08T08:31:46;29.88;;;15.15;;
21848;SDS011;11089;49.852;19.700;2024-03-08T08:34:47;32.42;;;15.98;;
21848;SDS011;11089;49.852;19.700;2024-03-08T08:37:48;31.20;;;14.40;;
21848;SDS011;11089;49.852;19.700;2024-03-08T08:40:49;32.20;;;15.63;;
21848;SDS011;11089;49.852;19.700;2024-03-08T08:43:50;32.90;;;15.88;;
21848;SDS011;11089;49.852;19.700;2024-03-08T08:46:51;37.67;;;17.20;;
21848;SDS011;11089;49.852;19.700;2024-03-08T08:49:52;36.17;;;16.15;;
21848;SDS011;11089;49.852;19.700;2024-03-08T08:52:54;34.85;;;15.95;;
21848;SDS011;11089;49.852;19.700;2024-03-08T08:55:55;34.03;;;16.55;;
21848;SDS011;11089;49.852;19.700;2024-03-08T08:58:56;31.20;;;15.15;;
21848;SDS011;11089;49.852;19.700;2024-03-08T09:01:58;35.83;;;17.17;;
21848;SDS011;11089;49.852;19.700;2024-03-08T09:04:58;38.42;;;17.50;;
21848;SDS011;11089;49.852;19.700;2024-03-08T09:08:00;38.75;;;17.83;;
21848;SDS011;11089;49.852;19.700;2024-03-08T09:11:03;34.53;;;15.98;;
21848;SDS011;11089;49.852;19.700;2024-03-08T09:14:04;34.15;;;15.98;;
21848;SDS011;11089;49.852;19.700;2024-03-08T09:17:05;34.25;;;15.90;;
21848;SDS011;11089;49.852;19.700;2024-03-08T09:20:08;33.75;;;16.00;;
21848;SDS011;11089;49.852;19.700;2024-03-08T09:23:10;37.20;;;17.58;;
21848;SDS011;11089;49.852;19.700;2024-03-08T09:26:11;38.67;;;17.35;;
21848;SDS011;11089;49.852;19.700;2024-03-08T09:29:12;37.83;;;17.35;;
21848;SDS011;11089;49.852;19.700;2024-03-08T09:32:13;36.40;;;17.35;;
21848;SDS011;11089;49.852;19.700;2024-03-08T09:35:14;35.13;;;17.02;;
21848;SDS011;11089;49.852;19.700;2024-03-08T09:38:15;34.72;;;17.20;;
21848;SDS011;11089;49.852;19.700;2024-03-08T09:41:16;41.95;;;17.38;;
21848;SDS011;11089;49.852;19.700;2024-03-08T09:44:17;33.28;;;15.75;;
21848;SDS011;11089;49.852;19.700;2024-03-08T09:47:19;34.13;;;16.10;;
21848;SDS011;11089;49.852;19.700;2024-03-08T09:50:25;33.25;;;15.20;;
21848;SDS011;11089;49.852;19.700;2024-03-08T09:53:28;34.28;;;15.32;;
21848;SDS011;11089;49.852;19.700;2024-03-08T09:56:32;33.17;;;14.82;;
21848;SDS011;11089;49.852;19.700;2024-03-08T09:59:34;34.90;;;15.63;;
21848;SDS011;11089;49.852;19.700;2024-03-08T10:02:37;36.65;;;17.23;;
21848;SDS011;11089;49.852;19.700;2024-03-08T10:05:38;39.45;;;17.55;;
21848;SDS011;11089;49.852;19.700;2024-03-08T10:08:39;33.80;;;16.35;;
21848;SDS011;11089;49.852;19.700;2024-03-08T10:11:40;33.42;;;15.98;;
21848;SDS011;11089;49.852;19.700;2024-03-08T10:14:41;31.33;;;14.98;;
21848;SDS011;11089;49.852;19.700;2024-03-08T10:17:42;35.25;;;15.02;;
21848;SDS011;11089;49.852;19.700;2024-03-08T10:20:43;33.63;;;16.30;;
21848;SDS011;11089;49.852;19.700;2024-03-08T10:23:44;32.65;;;15.88;;
21848;SDS011;11089;49.852;19.700;2024-03-08T10:26:45;32.15;;;16.25;;
21848;SDS011;11089;49.852;19.700;2024-03-08T10:29:49;31.55;;;15.73;;
21848;SDS011;11089;49.852;19.700;2024-03-08T10:32:52;36.92;;;18.13;;
21848;SDS011;11089;49.852;19.700;2024-03-08T10:35:53;37.53;;;17.88;;
21848;SDS011;11089;49.852;19.700;2024-03-08T10:38:55;36.40;;;18.23;;
21848;SDS011;11089;49.852;19.700;2024-03-08T10:41:59;39.45;;;18.33;;
21848;SDS011;11089;49.852;19.700;2024-03-08T10:45:11;35.90;;;16.50;;
21848;SDS011;11089;49.852;19.700;2024-03-08T10:48:37;32.33;;;16.38;;
21848;SDS011;11089;49.852;19.700;2024-03-08T10:51:44;38.72;;;17.77;;
21848;SDS011;11089;49.852;19.700;2024-03-08T10:54:47;34.65;;;17.92;;
21848;SDS011;11089;49.852;19.700;2024-03-08T10:57:51;34.63;;;16.52;;
21848;SDS011;11089;49.852;19.700;2024-03-08T11:00:54;36.22;;;16.55;;
21848;SDS011;11089;49.852;19.700;2024-03-08T11:03:56;33.50;;;16.38;;
21848;SDS011;11089;49.852;19.700;2024-03-08T11:07:03;36.60;;;17.30;;
21848;SDS011;11089;49.852;19.700;2024-03-08T11:10:06;37.85;;;17.48;;
21848;SDS011;11089;49.852;19.700;2024-03-08T11:16:49;34.35;;;17.17;;
21848;SDS011;11089;49.852;19.700;2024-03-08T11:19:50;36.13;;;16.15;;
21848;SDS011;11089;49.852;19.700;2024-03-08T11:22:53;36.55;;;17.65;;
21848;SDS011;11089;49.852;19.700;2024-03-08T11:25:55;34.50;;;16.83;;
21848;SDS011;11089;49.852;19.700;2024-03-08T11:28:56;34.33;;;16.42;;
21848;SDS011;11089;49.852;19.700;2024-03-08T11:32:30;31.88;;;15.82;;
21848;SDS011;11089;49.852;19.700;2024-03-08T11:35:32;35.97;;;17.17;;
21848;SDS011;11089;49.852;19.700;2024-03-08T11:38:33;35.58;;;16.65;;
21848;SDS011;11089;49.852;19.700;2024-03-08T11:41:42;35.50;;;16.25;;
21848;SDS011;11089;49.852;19.700;2024-03-08T11:44:45;34.65;;;16.50;;
21848;SDS011;11089;49.852;19.700;2024-03-08T11:47:47;34.80;;;16.77;;
21848;SDS011;11089;49.852;19.700;2024-03-08T11:50:58;39.30;;;18.25;;
21848;SDS011;11089;49.852;19.700;2024-03-08T11:54:01;32.42;;;16.52;;
21848;SDS011;11089;49.852;19.700;2024-03-08T11:57:03;33.92;;;16.73;;
21848;SDS011;11089;49.852;19.700;2024-03-08T12:00:04;35.10;;;16.75;;
21848;SDS011;11089;49.852;19.700;2024-03-08T12:03:08;31.55;;;16.25;;
21848;SDS011;11089;49.852;19.700;2024-03-08T12:06:10;34.95;;;16.90;;
21848;SDS011;11089;49.852;19.700;2024-03-08T12:09:13;33.08;;;15.80;;
21848;SDS011;11089;49.852;19.700;2024-03-08T12:12:16;37.90;;;16.88;;
21848;SDS011;11089;49.852;19.700;2024-03-08T12:15:18;33.47;;;16.50;;
21848;SDS011;11089;49.852;19.700;2024-03-08T12:18:20;34.25;;;16.88;;
21848;SDS011;11089;49.852;19.700;2024-03-08T12:21:21;35.92;;;16.52;;
21848;SDS011;11089;49.852;19.700;2024-03-08T12:24:24;36.42;;;16.27;;
21848;SDS011;11089;49.852;19.700;2024-03-08T12:27:27;35.67;;;16.85;;
21848;SDS011;11089;49.852;19.700;2024-03-08T12:30:30;33.65;;;16.63;;
21848;SDS011;11089;49.852;19.700;2024-03-08T12:33:33;35.47;;;16.92;;
21848;SDS011;11089;49.852;19.700;2024-03-08T12:36:35;33.97;;;15.63;;
21848;SDS011;11089;49.852;19.700;2024-03-08T12:39:40;33.92;;;16.05;;
21848;SDS011;11089;49.852;19.700;2024-03-08T12:42:41;36.42;;;16.63;;
21848;SDS011;11089;49.852;19.700;2024-03-08T12:45:42;36.13;;;17.15;;
21848;SDS011;11089;49.852;19.700;2024-03-08T12:48:43;33.65;;;16.25;;
21848;SDS011;11089;49.852;19.700;2024-03-08T12:51:47;36.33;;;17.00;;
21848;SDS011;11089;49.852;19.700;2024-03-08T12:54:48;36.60;;;18.15;;
21848;SDS011;11089;49.852;19.700;2024-03-08T12:57:49;36.35;;;18.42;;
21848;SDS011;11089;49.852;19.700;2024-03-08T13:00:50;33.83;;;16.70;;
21848;SDS011;11089;49.852;19.700;2024-03-08T13:03:51;35.50;;;16.73;;
21848;SDS011;11089;49.852;19.700;2024-03-08T13:06:52;36.75;;;16.45;;
21848;SDS011;11089;49.852;19.700;2024-03-08T13:09:55;38.65;;;18.33;;
21848;SDS011;11089;49.852;19.700;2024-03-08T13:12:57;39.38;;;18.00;;
21848;SDS011;11089;49.852;19.700;2024-03-08T13:15:57;36.65;;;17.25;;
21848;SDS011;11089;49.852;19.700;2024-03-08T13:19:01;38.20;;;18.25;;
21848;SDS011;11089;49.852;19.700;2024-03-08T13:22:02;33.42;;;16.10;;
21848;SDS011;11089;49.852;19.700;2024-03-08T13:25:05;37.92;;;17.23;;
21848;SDS011;11089;49.852;19.700;2024-03-08T13:28:06;36.70;;;17.60;;
21848;SDS011;11089;49.852;19.700;2024-03-08T13:31:07;36.85;;;17.30;;
21848;SDS011;11089;49.852;19.700;2024-03-08T13:34:10;36.47;;;17.42;;
21848;SDS011;11089;49.852;19.700;2024-03-08T13:37:11;37.67;;;17.65;;
21848;SDS011;11089;49.852;19.700;2024-03-08T13:40:12;40.08;;;17.38;;
21848;SDS011;11089;49.852;19.700;2024-03-08T13:43:18;34.72;;;18.50;;
21848;SDS011;11089;49.852;19.700;2024-03-08T13:46:19;37.47;;;17.77;;
21848;SDS011;11089;49.852;19.700;2024-03-08T13:49:20;39.00;;;18.55;;
21848;SDS011;11089;49.852;19.700;2024-03-08T13:52:21;38.35;;;17.73;;
21848;SDS011;11089;49.852;19.700;2024-03-08T13:55:25;35.60;;;16.83;;
21848;SDS011;11089;49.852;19.700;2024-03-08T13:58:27;37.53;;;17.85;;
21848;SDS011;11089;49.852;19.700;2024-03-08T14:01:28;37.63;;;17.25;;
21848;SDS011;11089;49.852;19.700;2024-03-08T14:04:30;36.90;;;17.05;;
21848;SDS011;11089;49.852;19.700;2024-03-08T14:07:31;36.85;;;17.17;;
21848;SDS011;11089;49.852;19.700;2024-03-08T14:10:34;37.55;;;17.58;;
21848;SDS011;11089;49.852;19.700;2024-03-08T14:13:40;39.25;;;18.00;;
21848;SDS011;11089;49.852;19.700;2024-03-08T14:16:45;40.20;;;17.75;;
21848;SDS011;11089;49.852;19.700;2024-03-08T14:19:47;34.30;;;17.65;;
21848;SDS011;11089;49.852;19.700;2024-03-08T14:22:47;33.90;;;16.80;;
21848;SDS011;11089;49.852;19.700;2024-03-08T14:25:49;35.53;;;17.20;;
21848;SDS011;11089;49.852;19.700;2024-03-08T14:28:52;36.47;;;18.15;;
21848;SDS011;11089;49.852;19.700;2024-03-08T14:31:57;36.80;;;16.90;;
21848;SDS011;11089;49.852;19.700;2024-03-08T14:34:59;40.25;;;19.05;;
21848;SDS011;11089;49.852;19.700;2024-03-08T14:38:00;38.78;;;18.13;;
21848;SDS011;11089;49.852;19.700;2024-03-08T14:41:01;36.58;;;17.17;;
21848;SDS011;11089;49.852;19.700;2024-03-08T14:44:04;35.78;;;16.85;;
21848;SDS011;11089;49.852;19.700;2024-03-08T14:47:05;37.60;;;17.58;;
21848;SDS011;11089;49.852;19.700;2024-03-08T14:50:06;36.60;;;17.58;;
21848;SDS011;11089;49.852;19.700;2024-03-08T14:53:09;37.80;;;17.38;;
21848;SDS011;11089;49.852;19.700;2024-03-08T14:56:13;35.95;;;17.23;;
21848;SDS011;11089;49.852;19.700;2024-03-08T14:59:17;35.53;;;17.27;;
21848;SDS011;11089;49.852;19.700;2024-03-08T15:02:19;37.97;;;17.88;;
21848;SDS011;11089;49.852;19.700;2024-03-08T15:05:22;36.08;;;16.90;;
21848;SDS011;11089;49.852;19.700;2024-03-08T15:08:39;33.53;;;15.18;;
21848;SDS011;11089;49.852;19.700;2024-03-08T15:11:40;39.30;;;16.73;;
21848;SDS011;11089;49.852;19.700;2024-03-08T15:14:43;36.10;;;17.23;;
21848;SDS011;11089;49.852;19.700;2024-03-08T15:17:44;39.20;;;18.40;;
21848;SDS011;11089;49.852;19.700;2024-03-08T15:20:47;34.42;;;17.20;;
21848;SDS011;11089;49.852;19.700;2024-03-08T15:23:48;39.33;;;17.48;;
21848;SDS011;11089;49.852;19.700;2024-03-08T15:26:54;38.65;;;17.95;;
21848;SDS011;11089;49.852;19.700;2024-03-08T15:29:55;42.35;;;18.77;;
21848;SDS011;11089;49.852;19.700;2024-03-08T15:32:58;41.30;;;18.15;;
21848;SDS011;11089;49.852;19.700;2024-03-08T15:36:01;36.83;;;18.23;;
21848;SDS011;11089;49.852;19.700;2024-03-08T15:39:08;35.63;;;16.92;;
21848;SDS011;11089;49.852;19.700;2024-03-08T15:42:10;41.22;;;17.60;;
21848;SDS011;11089;49.852;19.700;2024-03-08T15:45:11;37.85;;;18.23;;
21848;SDS011;11089;49.852;19.700;2024-03-08T15:48:12;37.00;;;17.95;;
21848;SDS011;11089;49.852;19.700;2024-03-08T15:51:13;39.15;;;18.17;;
21848;SDS011;11089;49.852;19.700;2024-03-08T15:54:17;37.45;;;17.27;;
21848;SDS011;11089;49.852;19.700;2024-03-08T15:57:18;40.00;;;17.63;;
21848;SDS011;11089;49.852;19.700;2024-03-08T16:00:21;39.88;;;17.33;;
21848;SDS011;11089;49.852;19.700;2024-03-08T16:03:33;39.80;;;16.83;;
21848;SDS011;11089;49.852;19.700;2024-03-08T16:06:34;38.35;;;16.65;;
21848;SDS011;11089;49.852;19.700;2024-03-08T16:09:37;36.90;;;17.25;;
21848;SDS011;11089;49.852;19.700;2024-03-08T16:12:38;33.38;;;16.10;;
21848;SDS011;11089;49.852;19.700;2024-03-08T16:15:39;40.17;;;17.25;;
21848;SDS011;11089;49.852;19.700;2024-03-08T16:18:40;44.55;;;18.48;;
21848;SDS011;11089;49.852;19.700;2024-03-08T16:21:41;40.13;;;17.58;;
21848;SDS011;11089;49.852;19.700;2024-03-08T16:24:43;39.25;;;17.33;;
21848;SDS011;11089;49.852;19.700;2024-03-08T16:27:44;38.80;;;16.85;;
21848;SDS011;11089;49.852;19.700;2024-03-08T16:30:47;38.67;;;17.42;;
21848;SDS011;11089;49.852;19.700;2024-03-08T16:33:48;36.90;;;16.45;;
21848;SDS011;11089;49.852;19.700;2024-03-08T16:36:49;39.17;;;18.52;;
21848;SDS011;11089;49.852;19.700;2024-03-08T16:39:52;39.47;;;18.95;;
21848;SDS011;11089;49.852;19.700;2024-03-08T16:42:53;39.38;;;19.05;;
21848;SDS011;11089;49.852;19.700;2024-03-08T16:45:54;41.35;;;19.45;;
21848;SDS011;11089;49.852;19.700;2024-03-08T16:48:56;39.90;;;17.05;;
21848;SDS011;11089;49.852;19.700;2024-03-08T16:51:57;40.20;;;18.27;;
21848;SDS011;11089;49.852;19.700;2024-03-08T16:54:58;44.15;;;19.58;;
21848;SDS011;11089;49.852;19.700;2024-03-08T16:57:59;42.38;;;19.88;;
21848;SDS011;11089;49.852;19.700;2024-03-08T17:01:00;43.53;;;20.65;;
21848;SDS011;11089;49.852;19.700;2024-03-08T17:04:02;47.70;;;22.27;;
21848;SDS011;11089;49.852;19.700;2024-03-08T17:07:04;43.28;;;19.38;;
21848;SDS011;11089;49.852;19.700;2024-03-08T17:10:06;43.05;;;20.45;;
21848;SDS011;11089;49.852;19.700;2024-03-08T17:13:14;47.15;;;20.67;;
21848;SDS011;11089;49.852;19.700;2024-03-08T17:16:17;44.97;;;21.17;;
21848;SDS011;11089;49.852;19.700;2024-03-08T17:19:24;47.40;;;24.10;;
21848;SDS011;11089;49.852;19.700;2024-03-08T17:22:28;51.78;;;23.42;;
21848;SDS011;11089;49.852;19.700;2024-03-08T17:25:29;42.83;;;20.83;;
21848;SDS011;11089;49.852;19.700;2024-03-08T17:28:30;46.00;;;19.65;;
21848;SDS011;11089;49.852;19.700;2024-03-08T17:31:31;41.75;;;18.38;;
21848;SDS011;11089;49.852;19.700;2024-03-08T17:34:32;38.10;;;17.73;;